createdAt,value
2019-03-05T00:01:04.206Z,55.58
2019-03-05T00:02:12.557Z,55.60
2019-03-05T00:03:20.897Z,55.59
2019-03-05T00:04:29.721Z,55.60
2019-03-05T00:05:38.061Z,55.59
2019-03-05T00:06:46.109Z,55.57
2019-03-05T00:07:54.214Z,55.56
2019-03-05T00:09:02.562Z,55.57
2019-03-05T00:10:14.406Z,55.62
2019-03-05T00:11:22.645Z,55.57
2019-03-05T00:12:30.819Z,55.43
2019-03-05T00:13:39.234Z,55.46
2019-03-05T00:14:47.294Z,55.47
2019-03-05T00:15:56.208Z,55.38
2019-03-05T00:17:04.493Z,55.26
2019-03-05T00:18:12.966Z,55.21
2019-03-05T00:19:20.974Z,55.18
2019-03-05T00:20:29.212Z,55.17
2019-03-05T00:21:39.397Z,55.13
2019-03-05T00:22:47.549Z,55.10
2019-03-05T00:23:59.393Z,55.06
2019-03-05T00:25:14.939Z,55.00
2019-03-05T00:26:33.437Z,54.95
2019-03-05T00:27:44.932Z,54.93
2019-03-05T00:29:15.540Z,54.91
2019-03-05T00:30:48.328Z,54.88
2019-03-05T00:31:56.948Z,54.84
2019-03-05T00:33:12.390Z,54.83
2019-03-05T00:34:45.994Z,54.75
2019-03-05T00:36:04.323Z,54.72
2019-03-05T00:37:25.572Z,54.69
2019-03-05T00:38:55.959Z,54.60
2019-03-05T00:40:16.959Z,54.55
2019-03-05T00:41:37.839Z,54.42
2019-03-05T00:43:08.171Z,54.38
2019-03-05T00:44:44.841Z,54.25
2019-03-05T00:46:09.252Z,54.30
2019-03-05T00:47:32.986Z,54.25
2019-03-05T00:49:06.522Z,54.20
2019-03-05T00:50:56.690Z,54.15
2019-03-05T00:52:14.522Z,54.24
2019-03-05T00:53:42.141Z,54.21
2019-03-05T00:55:24.947Z,54.12
2019-03-05T00:56:46.254Z,54.11
2019-03-05T00:58:13.665Z,54.17
2019-03-05T00:59:43.366Z,54.04
2019-03-05T01:01:27.954Z,53.92
2019-03-05T01:02:48.644Z,53.95
2019-03-05T01:04:37.918Z,53.81
2019-03-05T01:06:12.363Z,53.78
2019-03-05T01:07:20.540Z,53.12
2019-03-05T01:08:30.057Z,52.19
2019-03-05T01:09:38.152Z,51.50
2019-03-05T01:10:46.655Z,51.40
2019-03-05T01:11:54.881Z,51.41
2019-03-05T01:13:03.185Z,51.23
2019-03-05T01:14:12.323Z,50.87
2019-03-05T01:15:19.508Z,50.63
2019-03-05T01:16:29.301Z,50.72
2019-03-05T01:17:37.629Z,50.76
2019-03-05T01:18:45.773Z,50.85
2019-03-05T01:19:54.179Z,50.90
2019-03-05T01:21:02.549Z,51.10
2019-03-05T01:22:10.898Z,51.40
2019-03-05T01:23:18.964Z,51.63
2019-03-05T01:24:27.237Z,51.81
2019-03-05T01:25:36.494Z,52.10
2019-03-05T01:26:44.368Z,52.30
2019-03-05T01:27:52.488Z,52.40
2019-03-05T01:29:00.449Z,52.35
2019-03-05T01:30:11.724Z,52.35
2019-03-05T01:31:31.642Z,52.35
2019-03-05T01:32:44.061Z,52.25
2019-03-05T01:33:54.065Z,52.35
2019-03-05T01:35:09.559Z,52.50
2019-03-05T01:36:20.269Z,52.54
2019-03-05T01:37:28.898Z,52.59
2019-03-05T01:38:44.681Z,52.57
2019-03-05T01:39:54.852Z,52.56
2019-03-05T01:41:04.458Z,52.52
2019-03-05T01:42:12.664Z,52.56
2019-03-05T01:43:20.887Z,52.45
2019-03-05T01:44:29.400Z,52.70
2019-03-05T01:45:37.791Z,52.75
2019-03-05T01:46:45.970Z,52.76
2019-03-05T01:47:53.915Z,52.94
2019-03-05T01:49:02.055Z,53.08
2019-03-05T01:50:12.779Z,53.15
2019-03-05T01:51:21.018Z,53.30
2019-03-05T01:52:29.509Z,53.37
2019-03-05T01:53:37.565Z,53.47
2019-03-05T01:54:45.604Z,53.70
2019-03-05T01:55:53.741Z,53.70
2019-03-05T01:57:01.856Z,53.73
2019-03-05T01:58:10.252Z,53.79
2019-03-05T01:59:18.457Z,53.82
2019-03-05T02:00:26.990Z,53.97
2019-03-05T02:01:35.672Z,54.04
2019-03-05T02:02:43.820Z,54.17
2019-03-05T02:03:51.954Z,54.26
2019-03-05T02:05:00.402Z,54.30
2019-03-05T02:06:08.671Z,54.37
2019-03-05T02:07:17.305Z,54.37
2019-03-05T02:08:26.220Z,54.33
2019-03-05T02:09:34.503Z,54.27
2019-03-05T02:10:42.951Z,54.30
2019-03-05T02:11:51.060Z,54.34
2019-03-05T02:12:59.432Z,54.37
2019-03-05T02:14:07.695Z,54.32
2019-03-05T02:15:15.996Z,54.28
2019-03-05T02:16:24.106Z,54.23
2019-03-05T02:17:32.230Z,54.13
2019-03-05T02:18:40.598Z,54.11
2019-03-05T02:19:48.525Z,54.02
2019-03-05T02:20:57.344Z,53.81
2019-03-05T02:22:09.104Z,53.77
2019-03-05T02:23:21.469Z,53.72
2019-03-05T02:24:50.569Z,53.68
2019-03-05T02:26:34.607Z,53.69
2019-03-05T02:28:09.858Z,53.69
2019-03-05T02:29:46.505Z,53.69
2019-03-05T02:31:26.121Z,53.68
2019-03-05T02:32:56.415Z,53.72
2019-03-05T02:34:17.566Z,53.64
2019-03-05T02:35:38.775Z,53.59
2019-03-05T02:37:02.648Z,53.50
2019-03-05T02:38:27.222Z,53.41
2019-03-05T02:39:57.883Z,53.28
2019-03-05T02:41:34.673Z,53.31
2019-03-05T02:42:47.034Z,52.88
2019-03-05T02:44:42.084Z,52.85
2019-03-05T02:46:12.266Z,52.80
2019-03-05T02:47:37.423Z,52.77
2019-03-05T02:49:21.121Z,52.76
2019-03-05T02:50:50.174Z,52.77
2019-03-05T02:52:26.758Z,52.80
2019-03-05T02:54:16.594Z,52.68
2019-03-05T02:55:50.882Z,52.78
2019-03-05T02:57:07.066Z,52.73
2019-03-05T02:58:13.176Z,52.63
2019-03-05T02:59:22.438Z,52.49
2019-03-05T03:00:32.421Z,52.27
2019-03-05T03:01:44.920Z,52.54
2019-03-05T03:02:57.325Z,52.65
2019-03-05T03:04:09.801Z,52.78
2019-03-05T03:05:25.794Z,52.95
2019-03-05T03:06:34.093Z,52.99
2019-03-05T03:07:42.066Z,53.09
2019-03-05T03:08:50.228Z,53.03
2019-03-05T03:10:11.526Z,53.01
2019-03-05T03:11:19.921Z,53.06
2019-03-05T03:12:28.080Z,52.89
2019-03-05T03:13:35.850Z,52.94
2019-03-05T03:14:43.885Z,52.87
2019-03-05T03:15:51.944Z,52.83
2019-03-05T03:17:00.062Z,52.74
2019-03-05T03:18:08.117Z,52.73
2019-03-05T03:19:16.305Z,52.72
2019-03-05T03:20:24.534Z,52.75
2019-03-05T03:21:32.719Z,52.71
2019-03-05T03:22:40.801Z,52.51
2019-03-05T03:23:48.709Z,52.52
2019-03-05T03:24:56.754Z,52.54
2019-03-05T03:26:04.676Z,52.34
2019-03-05T03:27:12.781Z,52.33
2019-03-05T03:28:20.626Z,52.30
2019-03-05T03:29:28.623Z,52.30
2019-03-05T03:30:37.149Z,52.19
2019-03-05T03:31:45.114Z,52.20
2019-03-05T03:32:53.378Z,52.21
2019-03-05T03:34:01.158Z,52.00
2019-03-05T03:35:12.658Z,52.05
2019-03-05T03:36:21.045Z,51.94
2019-03-05T03:37:28.993Z,51.99
2019-03-05T03:38:36.975Z,51.95
2019-03-05T03:39:45.010Z,51.89
2019-03-05T03:40:53.098Z,52.05
2019-03-05T03:42:01.377Z,52.05
2019-03-05T03:43:09.638Z,51.95
2019-03-05T03:44:18.836Z,51.75
2019-03-05T03:45:27.511Z,51.76
2019-03-05T03:46:35.708Z,51.82
2019-03-05T03:47:43.810Z,52.08
2019-03-05T03:48:51.935Z,52.26
2019-03-05T03:50:00.322Z,52.41
2019-03-05T03:51:08.440Z,52.57
2019-03-05T03:52:16.838Z,52.97
2019-03-05T03:53:24.914Z,53.16
2019-03-05T03:54:33.005Z,53.24
2019-03-05T03:55:41.044Z,53.56
2019-03-05T03:56:49.076Z,53.58
2019-03-05T03:57:57.374Z,53.69
2019-03-05T03:59:05.334Z,53.69
2019-03-05T04:00:19.758Z,53.74
2019-03-05T04:01:28.237Z,53.88
2019-03-05T04:02:36.313Z,54.02
2019-03-05T04:03:44.902Z,54.03
2019-03-05T04:04:52.912Z,54.10
2019-03-05T04:06:01.004Z,54.08
2019-03-05T04:07:09.136Z,54.08
2019-03-05T04:08:17.246Z,54.11
2019-03-05T04:09:25.342Z,54.13
2019-03-05T04:10:33.399Z,54.17
2019-03-05T04:11:41.591Z,54.28
2019-03-05T04:12:49.757Z,54.35
2019-03-05T04:13:59.807Z,54.41
2019-03-05T04:15:14.522Z,54.34
2019-03-05T04:16:22.824Z,54.21
2019-03-05T04:17:30.994Z,54.15
2019-03-05T04:18:39.566Z,54.15
2019-03-05T04:19:47.622Z,54.16
2019-03-05T04:20:55.588Z,54.16
2019-03-05T04:22:03.575Z,54.16
2019-03-05T04:23:11.859Z,54.14
2019-03-05T04:24:20.143Z,54.05
2019-03-05T04:25:28.469Z,54.09
2019-03-05T04:26:36.457Z,54.12
2019-03-05T04:27:44.432Z,54.01
2019-03-05T04:28:52.723Z,54.14
2019-03-05T04:30:00.934Z,54.12
2019-03-05T04:31:09.215Z,54.08
2019-03-05T04:32:17.272Z,54.03
2019-03-05T04:33:25.467Z,53.92
2019-03-05T04:34:33.606Z,53.94
2019-03-05T04:35:41.560Z,53.96
2019-03-05T04:36:49.584Z,54.06
2019-03-05T04:37:57.582Z,54.14
2019-03-05T04:39:08.960Z,54.22
2019-03-05T04:40:17.261Z,54.22
2019-03-05T04:41:25.511Z,54.20
2019-03-05T04:42:33.556Z,54.06
2019-03-05T04:43:41.849Z,53.79
2019-03-05T04:44:52.100Z,53.78
2019-03-05T04:46:02.134Z,53.20
2019-03-05T04:47:10.250Z,53.13
2019-03-05T04:48:18.449Z,53.00
2019-03-05T04:49:37.660Z,53.06
2019-03-05T04:50:53.381Z,53.08
2019-03-05T04:52:05.505Z,53.14
2019-03-05T04:53:13.588Z,53.39
2019-03-05T04:54:21.629Z,53.63
2019-03-05T04:55:30.063Z,53.90
2019-03-05T04:56:38.063Z,54.03
2019-03-05T04:57:46.130Z,54.07
2019-03-05T04:58:54.359Z,53.99
2019-03-05T05:00:02.334Z,54.19
2019-03-05T05:01:10.817Z,54.43
2019-03-05T05:02:19.502Z,54.65
2019-03-05T05:03:27.584Z,55.13
2019-03-05T05:04:35.989Z,55.63
2019-03-05T05:05:44.012Z,56.08
2019-03-05T05:06:51.990Z,56.63
2019-03-05T05:08:00.277Z,57.08
2019-03-05T05:09:09.486Z,57.41
2019-03-05T05:10:17.538Z,57.62
2019-03-05T05:11:27.962Z,57.70
2019-03-05T05:12:35.906Z,57.80
2019-03-05T05:13:44.020Z,57.91
2019-03-05T05:14:52.291Z,57.94
2019-03-05T05:16:00.463Z,58.13
2019-03-05T05:17:08.295Z,58.23
2019-03-05T05:18:16.235Z,58.20
2019-03-05T05:19:24.372Z,58.39
2019-03-05T05:20:32.509Z,58.45
2019-03-05T05:21:40.918Z,58.43
2019-03-05T05:22:49.276Z,58.40
2019-03-05T05:23:57.411Z,58.42
2019-03-05T05:25:06.798Z,58.58
2019-03-05T05:26:17.623Z,58.66
2019-03-05T05:27:24.656Z,58.83
2019-03-05T05:28:32.691Z,58.90
2019-03-05T05:29:40.861Z,58.95
2019-03-05T05:30:48.825Z,58.98
2019-03-05T05:31:58.442Z,59.04
2019-03-05T05:33:08.087Z,59.09
2019-03-05T05:34:16.128Z,59.07
2019-03-05T05:35:24.317Z,58.96
2019-03-05T05:36:32.345Z,59.00
2019-03-05T05:37:40.708Z,58.86
2019-03-05T05:38:49.588Z,58.71
2019-03-05T05:40:27.869Z,58.66
2019-03-05T05:41:36.029Z,58.60
2019-03-05T05:42:44.476Z,58.44
2019-03-05T05:43:52.884Z,58.24
2019-03-05T05:45:01.037Z,57.96
2019-03-05T05:46:09.051Z,57.77
2019-03-05T05:47:17.106Z,57.27
2019-03-05T05:48:24.960Z,57.35
2019-03-05T05:49:32.868Z,57.25
2019-03-05T05:50:41.210Z,56.87
2019-03-05T05:51:49.727Z,56.90
2019-03-05T05:52:58.020Z,56.77
2019-03-05T05:54:06.026Z,56.64
2019-03-05T05:55:14.099Z,56.40
2019-03-05T05:56:22.068Z,55.96
2019-03-05T05:57:31.004Z,55.62
2019-03-05T05:58:39.161Z,55.56
2019-03-05T05:59:47.220Z,55.44
2019-03-05T06:00:56.856Z,55.40
2019-03-05T06:02:07.048Z,55.22
2019-03-05T06:03:15.266Z,54.99
2019-03-05T06:04:23.507Z,54.98
2019-03-05T06:05:31.425Z,54.94
2019-03-05T06:06:39.459Z,54.95
2019-03-05T06:07:47.567Z,54.95
2019-03-05T06:08:55.805Z,54.75
2019-03-05T06:10:03.775Z,54.60
2019-03-05T06:11:11.985Z,54.43
2019-03-05T06:12:20.047Z,54.25
2019-03-05T06:13:27.998Z,54.26
2019-03-05T06:14:35.960Z,54.41
2019-03-05T06:15:44.470Z,54.45
2019-03-05T06:16:52.977Z,54.23
2019-03-05T06:18:01.106Z,54.17
2019-03-05T06:19:09.406Z,54.08
2019-03-05T06:20:20.336Z,53.92
2019-03-05T06:21:28.489Z,53.98
2019-03-05T06:22:36.782Z,53.98
2019-03-05T06:23:44.935Z,54.01
2019-03-05T06:24:53.001Z,53.86
2019-03-05T06:26:01.088Z,53.82
2019-03-05T06:27:09.385Z,53.77
2019-03-05T06:28:17.831Z,53.70
2019-03-05T06:29:25.938Z,53.54
2019-03-05T06:30:44.890Z,53.53
2019-03-05T06:31:53.295Z,53.52
2019-03-05T06:33:01.394Z,53.30
2019-03-05T06:34:09.432Z,53.18
2019-03-05T06:35:17.722Z,53.23
2019-03-05T06:36:26.010Z,53.25
2019-03-05T06:37:44.053Z,53.24
2019-03-05T06:38:52.116Z,53.06
2019-03-05T06:40:00.822Z,52.87
2019-03-05T06:41:08.851Z,52.87
2019-03-05T06:42:16.837Z,52.85
2019-03-05T06:43:24.911Z,52.85
2019-03-05T06:44:33.129Z,52.80
2019-03-05T06:45:41.525Z,52.80
2019-03-05T06:46:49.699Z,52.77
2019-03-05T06:47:58.056Z,52.55
2019-03-05T06:49:06.105Z,52.31
2019-03-05T06:50:16.686Z,52.31
2019-03-05T06:51:24.680Z,52.22
2019-03-05T06:52:32.906Z,52.15
2019-03-05T06:53:41.088Z,52.01
2019-03-05T06:54:48.984Z,52.01
2019-03-05T06:55:57.285Z,51.87
2019-03-05T06:57:05.556Z,51.71
2019-03-05T06:58:14.064Z,51.49
2019-03-05T06:59:22.044Z,51.39
2019-03-05T07:00:37.182Z,51.33
2019-03-05T07:01:45.347Z,51.21
2019-03-05T07:02:53.590Z,51.03
2019-03-05T07:04:01.609Z,50.87
2019-03-05T07:05:47.070Z,50.81
2019-03-05T07:06:55.982Z,50.42
2019-03-05T07:08:04.161Z,50.37
2019-03-05T07:09:42.272Z,50.31
2019-03-05T07:11:06.902Z,50.09
2019-03-05T07:12:28.353Z,50.16
2019-03-05T07:13:36.553Z,50.14
2019-03-05T07:15:11.403Z,50.05
2019-03-05T07:16:50.809Z,50.00
2019-03-05T07:18:03.543Z,49.79
2019-03-05T07:19:11.615Z,49.26
2019-03-05T07:20:33.149Z,48.97
2019-03-05T07:21:57.562Z,48.66
2019-03-05T07:23:32.068Z,48.27
2019-03-05T07:24:47.942Z,47.80
2019-03-05T07:25:56.014Z,47.85
2019-03-05T07:27:04.224Z,47.66
2019-03-05T07:28:12.095Z,47.62
2019-03-05T07:29:20.450Z,47.65
2019-03-05T07:30:28.628Z,47.33
2019-03-05T07:31:38.562Z,47.37
2019-03-05T07:32:46.867Z,47.42
2019-03-05T07:33:55.135Z,47.54
2019-03-05T07:35:03.567Z,47.61
2019-03-05T07:36:11.632Z,47.44
2019-03-05T07:37:22.621Z,47.26
2019-03-05T07:38:30.677Z,47.32
2019-03-05T07:39:38.641Z,47.20
2019-03-05T07:40:46.847Z,46.97
2019-03-05T07:41:54.987Z,46.65
2019-03-05T07:43:03.526Z,46.54
2019-03-05T07:44:11.448Z,46.61
2019-03-05T07:45:19.537Z,46.68
2019-03-05T07:46:27.870Z,46.61
2019-03-05T07:47:36.253Z,46.76
2019-03-05T07:48:44.519Z,46.85
2019-03-05T07:49:52.625Z,46.74
2019-03-05T07:51:00.859Z,46.24
2019-03-05T07:52:08.827Z,46.12
2019-03-05T07:53:16.931Z,46.34
2019-03-05T07:54:24.987Z,46.47
2019-03-05T07:55:33.022Z,46.30
2019-03-05T07:56:41.081Z,46.26
2019-03-05T07:57:48.936Z,46.34
2019-03-05T07:58:57.106Z,46.11
2019-03-05T08:00:09.436Z,45.68
2019-03-05T08:01:22.169Z,45.49
2019-03-05T08:02:27.497Z,45.35
2019-03-05T08:03:35.570Z,45.32
2019-03-05T08:04:43.756Z,45.27
2019-03-05T08:05:51.670Z,45.31
2019-03-05T08:07:00.113Z,45.14
2019-03-05T08:09:02.640Z,45.17
2019-03-05T08:10:21.034Z,44.99
2019-03-05T08:11:31.660Z,45.37
2019-03-05T08:13:02.575Z,45.14
2019-03-05T08:14:44.970Z,44.79
2019-03-05T08:16:09.792Z,44.88
2019-03-05T08:17:18.216Z,44.92
2019-03-05T08:18:26.261Z,45.23
2019-03-05T08:19:34.502Z,45.08
2019-03-05T08:20:42.493Z,44.47
2019-03-05T08:21:50.865Z,44.33
2019-03-05T08:22:59.004Z,44.25
2019-03-05T08:24:07.150Z,43.98
2019-03-05T08:25:15.771Z,43.72
2019-03-05T08:26:23.883Z,43.51
2019-03-05T08:27:32.071Z,43.17
2019-03-05T08:28:40.511Z,42.96
2019-03-05T08:29:48.720Z,42.77
2019-03-05T08:30:57.104Z,42.70
2019-03-05T08:32:05.819Z,42.72
2019-03-05T08:33:14.120Z,42.87
2019-03-05T08:34:21.152Z,43.02
2019-03-05T08:35:29.162Z,43.31
2019-03-05T08:36:37.134Z,43.14
2019-03-05T08:37:45.728Z,43.36
2019-03-05T08:38:53.876Z,43.33
2019-03-05T08:40:02.157Z,43.50
2019-03-05T08:41:10.205Z,43.88
2019-03-05T08:42:18.269Z,44.42
2019-03-05T08:43:26.426Z,44.83
2019-03-05T08:44:34.602Z,44.66
2019-03-05T08:45:43.058Z,44.18
2019-03-05T08:46:51.530Z,43.76
2019-03-05T08:47:59.993Z,43.43
2019-03-05T08:49:08.196Z,43.32
2019-03-05T08:50:17.115Z,43.50
2019-03-05T08:51:25.034Z,43.66
2019-03-05T08:52:33.078Z,43.95
2019-03-05T08:53:49.447Z,44.07
2019-03-05T08:54:52.171Z,43.98
2019-03-05T08:56:00.361Z,44.11
2019-03-05T08:57:08.409Z,44.12
2019-03-05T08:58:16.660Z,43.74
2019-03-05T08:59:24.636Z,43.99
2019-03-05T09:00:32.713Z,43.95
2019-03-05T09:01:40.834Z,44.01
2019-03-05T09:02:49.481Z,43.72
2019-03-05T09:03:57.769Z,43.43
2019-03-05T09:05:08.845Z,43.68
2019-03-05T09:06:17.047Z,43.13
2019-03-05T09:07:25.176Z,42.71
2019-03-05T09:08:33.402Z,42.71
2019-03-05T09:09:41.242Z,42.32
2019-03-05T09:10:49.364Z,42.13
2019-03-05T09:11:57.683Z,41.90
2019-03-05T09:13:09.003Z,42.15
2019-03-05T09:14:16.929Z,42.04
2019-03-05T09:15:24.900Z,42.13
2019-03-05T09:16:33.087Z,42.38
2019-03-05T09:17:41.222Z,42.41
2019-03-05T09:18:49.490Z,42.13
2019-03-05T09:19:58.187Z,41.71
2019-03-05T09:21:07.232Z,41.63
2019-03-05T09:22:15.346Z,41.74
2019-03-05T09:23:23.380Z,41.41
2019-03-05T09:24:31.512Z,41.58
2019-03-05T09:25:39.642Z,41.68
2019-03-05T09:26:51.471Z,41.16
2019-03-05T09:27:57.728Z,41.21
2019-03-05T09:29:06.357Z,41.20
2019-03-05T09:30:20.780Z,40.31
2019-03-05T09:31:28.936Z,40.35
2019-03-05T09:32:37.038Z,40.38
2019-03-05T09:33:45.269Z,40.27
2019-03-05T09:34:53.207Z,40.47
2019-03-05T09:36:01.687Z,40.47
2019-03-05T09:37:09.727Z,40.31
2019-03-05T09:38:17.856Z,39.81
2019-03-05T09:39:25.901Z,39.31
2019-03-05T09:40:35.358Z,39.71
2019-03-05T09:41:43.752Z,39.81
2019-03-05T09:42:52.422Z,39.62
2019-03-05T09:44:01.034Z,39.19
2019-03-05T09:45:13.829Z,39.22
2019-03-05T09:46:21.689Z,39.58
2019-03-05T09:47:29.814Z,39.42
2019-03-05T09:48:37.938Z,39.65
2019-03-05T09:49:46.253Z,39.37
2019-03-05T09:50:54.474Z,39.48
2019-03-05T09:52:03.023Z,38.88
2019-03-05T09:53:11.246Z,38.48
2019-03-05T09:54:19.420Z,38.32
2019-03-05T09:55:27.882Z,38.52
2019-03-05T09:56:35.883Z,38.66
2019-03-05T09:57:44.036Z,38.69
2019-03-05T09:58:51.960Z,38.72
2019-03-05T09:59:59.960Z,38.80
2019-03-05T10:01:08.350Z,38.79
2019-03-05T10:02:16.515Z,39.07
2019-03-05T10:03:24.451Z,39.37
2019-03-05T10:04:32.546Z,39.49
2019-03-05T10:05:41.912Z,39.55
2019-03-05T10:06:49.865Z,39.73
2019-03-05T10:07:57.941Z,39.48
2019-03-05T10:09:07.778Z,39.47
2019-03-05T10:10:25.684Z,39.65
2019-03-05T10:14:40.308Z,39.67
2019-03-05T10:20:18.292Z,39.00
2019-03-05T10:21:26.473Z,38.13
2019-03-05T10:22:34.294Z,37.30
2019-03-05T10:23:42.182Z,36.89
2019-03-05T10:24:49.993Z,36.00
2019-03-05T10:25:58.212Z,36.38
2019-03-05T10:27:06.431Z,36.69
2019-03-05T10:28:14.699Z,37.29
2019-03-05T10:29:23.349Z,37.55
2019-03-05T10:30:37.428Z,37.83
2019-03-05T10:31:45.579Z,37.98
2019-03-05T10:32:54.514Z,37.81
2019-03-05T10:34:02.824Z,37.43
2019-03-05T10:35:11.334Z,37.59
2019-03-05T10:36:19.708Z,37.31
2019-03-05T10:37:28.103Z,36.82
2019-03-05T10:38:36.229Z,36.76
2019-03-05T10:39:44.537Z,36.53
2019-03-05T10:41:01.944Z,36.66
2019-03-05T10:42:09.837Z,36.87
2019-03-05T10:43:18.694Z,36.99
2019-03-05T10:44:26.635Z,37.67
2019-03-05T10:45:34.719Z,38.13
2019-03-05T10:46:42.845Z,38.41
2019-03-05T10:47:53.622Z,38.55
2019-03-05T10:49:01.614Z,38.58
2019-03-05T10:50:16.354Z,38.19
2019-03-05T10:51:24.358Z,37.87
2019-03-05T10:52:32.455Z,37.36
2019-03-05T10:53:40.417Z,37.02
2019-03-05T10:54:48.545Z,36.36
2019-03-05T10:55:56.574Z,35.80
2019-03-05T10:57:05.089Z,35.85
2019-03-05T10:58:16.439Z,36.11
2019-03-05T10:59:24.697Z,36.68
2019-03-05T11:00:51.561Z,36.89
2019-03-05T11:01:59.969Z,36.81
2019-03-05T11:03:08.156Z,36.45
2019-03-05T11:04:16.153Z,36.74
2019-03-05T11:05:25.146Z,37.24
2019-03-05T11:06:33.357Z,37.57
2019-03-05T11:07:43.224Z,38.31
2019-03-05T11:08:51.872Z,38.44
2019-03-05T11:09:59.958Z,39.06
2019-03-05T11:11:13.548Z,38.67
2019-03-05T11:12:17.977Z,38.35
2019-03-05T11:13:26.257Z,37.83
2019-03-05T11:14:34.525Z,37.44
2019-03-05T11:15:42.652Z,37.23
2019-03-05T11:16:50.723Z,37.19
2019-03-05T11:17:59.171Z,37.07
2019-03-05T11:19:08.510Z,36.52
2019-03-05T11:20:16.868Z,36.53
2019-03-05T11:21:25.055Z,36.42
2019-03-05T11:22:33.070Z,36.60
2019-03-05T11:23:41.152Z,36.78
2019-03-05T11:24:49.154Z,36.86
2019-03-05T11:25:57.274Z,36.92
2019-03-05T11:27:05.534Z,37.03
2019-03-05T11:28:13.670Z,37.08
2019-03-05T11:29:21.871Z,36.76
2019-03-05T11:30:39.549Z,36.66
2019-03-05T11:31:47.527Z,36.57
2019-03-05T11:32:55.917Z,36.57
2019-03-05T11:34:03.840Z,36.51
2019-03-05T11:35:14.393Z,36.71
2019-03-05T11:36:22.702Z,36.82
2019-03-05T11:37:31.107Z,36.81
2019-03-05T11:38:38.987Z,37.01
2019-03-05T11:39:47.254Z,37.17
2019-03-05T11:40:55.261Z,37.26
2019-03-05T11:42:03.264Z,37.22
2019-03-05T11:43:14.472Z,36.92
2019-03-05T11:44:22.610Z,37.08
2019-03-05T11:45:33.734Z,37.25
2019-03-05T11:46:41.624Z,37.42
2019-03-05T11:47:50.479Z,37.53
2019-03-05T11:48:58.565Z,37.51
2019-03-05T11:50:10.305Z,37.52
2019-03-05T11:51:18.326Z,37.60
2019-03-05T11:52:26.461Z,37.60
2019-03-05T11:53:34.429Z,37.66
2019-03-05T11:54:42.482Z,37.56
2019-03-05T11:55:50.612Z,37.61
2019-03-05T11:56:58.677Z,37.65
2019-03-05T11:58:06.926Z,37.36
2019-03-05T11:59:15.008Z,37.00
2019-03-05T12:00:36.148Z,36.45
2019-03-05T12:01:44.202Z,36.31
2019-03-05T12:02:52.301Z,36.29
2019-03-05T12:04:00.249Z,36.42
2019-03-05T12:05:14.049Z,36.11
2019-03-05T12:06:22.225Z,36.16
2019-03-05T12:07:30.207Z,36.26
2019-03-05T12:08:38.302Z,36.30
2019-03-05T12:09:46.143Z,36.17
2019-03-05T12:10:54.168Z,36.11
2019-03-05T12:12:02.195Z,35.47
2019-03-05T12:13:10.393Z,35.13
2019-03-05T12:14:18.270Z,34.72
2019-03-05T12:15:35.866Z,34.47
2019-03-05T12:16:44.046Z,34.42
2019-03-05T12:17:52.202Z,34.57
2019-03-05T12:19:00.271Z,34.41
2019-03-05T12:20:12.753Z,34.20
2019-03-05T12:21:20.884Z,34.40
2019-03-05T12:22:31.509Z,34.45
2019-03-05T12:23:38.808Z,34.54
2019-03-05T12:24:46.797Z,34.43
2019-03-05T12:25:54.797Z,34.56
2019-03-05T12:27:02.747Z,34.52
2019-03-05T12:28:11.536Z,34.46
2019-03-05T12:29:19.758Z,34.61
2019-03-05T12:30:35.112Z,34.73
2019-03-05T12:31:43.059Z,34.88
2019-03-05T12:32:51.586Z,34.94
2019-03-05T12:33:59.699Z,34.86
2019-03-05T12:35:10.477Z,34.66
2019-03-05T12:36:18.849Z,34.84
2019-03-05T12:37:26.876Z,34.51
2019-03-05T12:38:35.074Z,34.33
2019-03-05T12:39:43.043Z,34.70
2019-03-05T12:40:51.135Z,35.11
2019-03-05T12:41:59.061Z,35.37
2019-03-05T12:43:07.339Z,35.59
2019-03-05T12:44:15.375Z,35.17
2019-03-05T12:45:25.337Z,35.15
2019-03-05T12:46:33.385Z,35.11
2019-03-05T12:47:41.396Z,34.88
2019-03-05T12:48:49.636Z,34.78
2019-03-05T12:49:57.609Z,34.68
2019-03-05T12:51:06.238Z,34.70
2019-03-05T12:52:28.044Z,34.74
2019-03-05T12:53:36.033Z,34.84
2019-03-05T12:54:44.088Z,34.78
2019-03-05T12:55:52.228Z,34.86
2019-03-05T12:57:00.320Z,34.70
2019-03-05T12:58:08.491Z,34.50
2019-03-05T12:59:16.587Z,34.40
2019-03-05T13:00:27.131Z,34.10
2019-03-05T13:01:35.306Z,34.14
2019-03-05T13:02:43.163Z,34.04
2019-03-05T13:03:51.090Z,33.97
2019-03-05T13:04:59.331Z,33.94
2019-03-05T13:06:07.495Z,33.77
2019-03-05T13:07:17.731Z,33.95
2019-03-05T13:08:25.460Z,34.21
2019-03-05T13:09:33.475Z,34.46
2019-03-05T13:10:41.521Z,34.63
2019-03-05T13:11:50.841Z,34.53
2019-03-05T13:12:59.191Z,34.40
2019-03-05T13:14:11.190Z,34.45
2019-03-05T13:15:35.907Z,34.58
2019-03-05T13:16:44.235Z,34.25
2019-03-05T13:17:52.838Z,34.47
2019-03-05T13:19:05.386Z,34.75
2019-03-05T13:20:16.574Z,34.78
2019-03-05T13:21:25.016Z,34.71
2019-03-05T13:22:33.379Z,34.83
2019-03-05T13:23:41.617Z,34.90
2019-03-05T13:24:50.299Z,34.82
2019-03-05T13:26:03.122Z,34.82
2019-03-05T13:27:08.797Z,34.69
2019-03-05T13:28:16.958Z,34.56
2019-03-05T13:29:25.169Z,34.44
2019-03-05T13:30:34.123Z,34.38
2019-03-05T13:31:42.323Z,34.05
2019-03-05T13:32:54.156Z,33.83
2019-03-05T13:34:01.397Z,33.93
2019-03-05T13:35:14.256Z,34.08
2019-03-05T13:36:22.578Z,34.29
2019-03-05T13:37:30.812Z,34.09
2019-03-05T13:38:41.843Z,34.00
2019-03-05T13:39:48.573Z,33.60
2019-03-05T13:40:56.594Z,33.70
2019-03-05T13:42:04.905Z,33.90
2019-03-05T13:43:12.976Z,34.03
2019-03-05T13:44:33.929Z,34.12
2019-03-05T13:45:48.857Z,34.08
2019-03-05T13:46:51.817Z,34.13
2019-03-05T13:48:14.856Z,34.03
2019-03-05T13:49:40.345Z,34.02
2019-03-05T13:50:55.637Z,33.70
2019-03-05T13:52:41.365Z,33.80
2019-03-05T13:54:26.622Z,33.93
2019-03-05T13:55:47.986Z,34.05
2019-03-05T13:57:02.979Z,34.34
2019-03-05T13:58:37.356Z,34.22
2019-03-05T13:59:52.688Z,34.22
2019-03-05T14:01:00.898Z,33.82
2019-03-05T14:02:10.309Z,33.69
2019-03-05T14:03:35.414Z,33.62
2019-03-05T14:04:48.285Z,33.76
2019-03-05T14:06:35.325Z,33.84
2019-03-05T14:08:23.776Z,33.99
2019-03-05T14:09:29.915Z,34.28
2019-03-05T14:10:38.863Z,34.60
2019-03-05T14:11:49.461Z,34.75
2019-03-05T14:12:57.267Z,34.75
2019-03-05T14:14:05.830Z,34.80
2019-03-05T14:15:14.203Z,34.95
2019-03-05T14:16:22.946Z,35.08
2019-03-05T14:17:30.992Z,35.20
2019-03-05T14:18:39.172Z,35.38
2019-03-05T14:19:47.254Z,35.80
2019-03-05T14:20:55.388Z,35.97
2019-03-05T14:22:03.518Z,36.58
2019-03-05T14:23:11.543Z,37.26
2019-03-05T14:24:19.940Z,37.96
2019-03-05T14:25:27.848Z,38.95
2019-03-05T14:26:35.840Z,40.02
2019-03-05T14:27:44.007Z,40.84
2019-03-05T14:28:51.969Z,41.94
2019-03-05T14:30:02.621Z,43.63
2019-03-05T14:31:09.733Z,44.55
2019-03-05T14:32:18.239Z,44.88
2019-03-05T14:33:26.172Z,45.19
2019-03-05T14:34:34.210Z,45.63
2019-03-05T14:35:42.962Z,45.99
2019-03-05T14:36:51.343Z,46.12
2019-03-05T14:37:59.492Z,46.27
2019-03-05T14:39:27.353Z,46.35
2019-03-05T14:40:37.845Z,46.57
2019-03-05T14:41:45.151Z,46.89
2019-03-05T14:42:53.138Z,47.05
2019-03-05T14:44:01.355Z,47.07
2019-03-05T14:45:23.195Z,47.39
2019-03-05T14:46:31.244Z,47.67
2019-03-05T14:47:39.474Z,47.83
2019-03-05T14:48:47.562Z,48.13
2019-03-05T14:49:55.874Z,48.32
2019-03-05T14:51:04.021Z,48.42
2019-03-05T14:52:11.945Z,48.70
2019-03-05T14:53:20.094Z,48.83
2019-03-05T14:54:28.074Z,49.03
2019-03-05T14:55:36.473Z,49.15
2019-03-05T14:56:44.616Z,49.16
2019-03-05T14:57:53.381Z,49.15
2019-03-05T14:59:01.443Z,49.21
2019-03-05T15:00:16.933Z,49.25
2019-03-05T15:01:24.844Z,49.37
2019-03-05T15:02:32.705Z,49.51
2019-03-05T15:03:40.818Z,49.55
2019-03-05T15:04:49.233Z,49.64
2019-03-05T15:05:57.387Z,49.63
2019-03-05T15:07:06.118Z,49.64
2019-03-05T15:08:14.114Z,49.59
2019-03-05T15:09:22.146Z,49.58
2019-03-05T15:10:30.213Z,49.52
2019-03-05T15:11:38.238Z,49.57
2019-03-05T15:12:46.739Z,49.56
2019-03-05T15:13:54.927Z,49.54
2019-03-05T15:15:03.506Z,49.48
2019-03-05T15:16:11.443Z,49.46
2019-03-05T15:17:19.663Z,49.48
2019-03-05T15:18:27.883Z,49.47
2019-03-05T15:19:36.125Z,49.38
2019-03-05T15:20:44.174Z,49.32
2019-03-05T15:21:52.173Z,49.30
2019-03-05T15:23:00.107Z,49.39